Terminal Aerodrome Forecast
Issued by NWS Shreveport, LA

Home | Current Version | Previous Version | Text Only | Print | Product List | Glossary On
Versions: 1 2 3 4 5 6 7 8 9 10 11 12 13 14 15 16 17 18 19
000
FTUS44 KSHV 231240 AAA
TAFGGG
TAF AMD
KGGG 231240Z 2313/2412 13003KT P6SM SKC
     FM231500 12008KT P6SM SCT020
     FM231800 12007KT P6SM SCT040
     FM240000 12005KT P6SM SCT050
     FM241000 VRB03KT P6SM SKC=

USA.gov is the U.S. government's official web portal to all federal, state and local government web resources and services.